Time;durP1;ratioP1;P1;durP2;ratioP2;P2;SDS_P1;SDS_P2;PMS_P1;PMS_P2;Temp;Humidity;BMP_temperature;BMP_pressure;BME280_temperature;BME280_humidity;BME280_pressure;Samples;Min_cycle;Max_cycle;Signal;HPM_P1;HPM_P2
2022/11/30 00:01:14;;;;;;;35.20;14.40;;;;;;;-0.80;99.64;99453.70;214038;1292;25227;-70
2022/11/30 00:06:21;;;;;;;33.80;12.00;;;;;;;-0.80;99.81;99445.60;214171;1310;23769;-69
2022/11/30 00:11:26;;;;;;;37.40;13.50;;;;;;;-0.79;99.87;99444.71;214041;1310;22494;-70
2022/11/30 00:16:30;;;;;;;38.40;15.10;;;;;;;-0.80;99.77;99447.02;214005;1310;22520;-70
2022/11/30 00:21:32;;;;;;;32.90;13.50;;;;;;;-0.83;99.82;99445.23;214006;1310;23738;-71
2022/11/30 00:26:34;;;;;;;32.30;13.60;;;;;;;-0.84;99.58;99445.02;214087;1310;22478;-70
2022/11/30 00:31:37;;;;;;;31.80;12.80;;;;;;;-0.88;99.73;99446.39;214257;1305;22469;-71
2022/11/30 00:36:39;;;;;;;30.60;11.40;;;;;;;-0.88;99.84;99448.62;214047;1310;22489;-70
2022/11/30 00:41:41;;;;;;;33.50;12.80;;;;;;;-0.88;99.85;99449.77;213961;1310;22641;-70
2022/11/30 00:46:43;;;;;;;28.00;11.30;;;;;;;-0.92;99.75;99449.24;214084;1310;24389;-71
2022/11/30 00:51:45;;;;;;;35.90;13.30;;;;;;;-0.93;99.75;99454.25;214166;1310;25390;-69
2022/11/30 00:56:47;;;;;;;36.40;13.10;;;;;;;-0.90;99.81;99466.16;214121;1310;22534;-70
2022/11/30 01:01:49;;;;;;;28.20;11.30;;;;;;;-0.88;99.85;99470.95;214219;1310;22525;-71
2022/11/30 01:06:51;;;;;;;34.80;13.00;;;;;;;-0.83;100.00;99468.25;214248;1295;22525;-70
2022/11/30 01:11:53;;;;;;;37.00;13.40;;;;;;;-0.81;99.91;99468.84;214139;1310;23216;-70
2022/11/30 01:16:55;;;;;;;34.00;13.30;;;;;;;-0.80;99.87;99468.20;214168;1310;25296;-71
2022/11/30 01:21:57;;;;;;;36.10;14.10;;;;;;;-0.83;99.85;99467.17;214179;1309;25364;-69
2022/11/30 01:26:59;;;;;;;36.20;13.80;;;;;;;-0.82;99.98;99467.09;214060;1310;23328;-69
2022/11/30 01:32:00;;;;;;;34.90;13.50;;;;;;;-0.81;99.98;99463.32;214042;1310;25604;-70
2022/11/30 01:37:02;;;;;;;36.30;14.00;;;;;;;-0.80;100.00;99462.20;213970;1310;23201;-70
2022/11/30 01:42:11;;;;;;;31.00;12.10;;;;;;;-0.77;100.00;99466.25;214101;1310;24265;-70
2022/11/30 01:47:14;;;;;;;33.60;13.40;;;;;;;-0.80;99.92;99469.88;214088;1310;22583;-71
2022/11/30 01:52:23;;;;;;;43.30;16.10;;;;;;;-0.78;99.99;99465.16;214123;1310;22727;-71
2022/11/30 01:57:30;;;;;;;31.60;11.70;;;;;;;-0.78;99.98;99469.01;214161;1310;22505;-70
2022/11/30 02:03:00;;;;;;;43.80;16.50;;;;;;;-0.76;100.00;99465.66;214195;1310;22484;-70
2022/11/30 02:08:08;;;;;;;36.20;13.90;;;;;;;-0.73;100.00;99470.41;214116;1310;22593;-71
2022/11/30 02:13:16;;;;;;;34.00;13.40;;;;;;;-0.70;100.00;99470.61;214198;1310;22505;-70
2022/11/30 02:18:27;;;;;;;28.40;11.90;;;;;;;-0.72;99.99;99472.92;214090;1310;23962;-70
2022/11/30 02:23:45;;;;;;;32.40;12.80;;;;;;;-0.71;99.99;99472.36;214092;1310;25520;-71
2022/11/30 02:29:11;;;;;;;39.20;13.80;;;;;;;-0.72;99.92;99465.95;214341;1310;25340;-68
2022/11/30 02:34:16;;;;;;;32.80;12.50;;;;;;;-0.74;99.92;99464.94;214175;1310;22536;-69
2022/11/30 02:39:21;;;;;;;36.90;13.90;;;;;;;-0.79;99.71;99462.61;214219;1310;22500;-71
2022/11/30 02:44:23;;;;;;;33.90;13.10;;;;;;;-0.82;99.96;99460.56;214305;1310;22571;-70
2022/11/30 02:49:40;;;;;;;36.60;12.50;;;;;;;-0.88;99.49;99470.66;214018;1311;22479;-70
2022/11/30 02:54:42;;;;;;;36.40;13.90;;;;;;;-0.91;99.78;99471.22;214097;1310;25486;-71
2022/11/30 02:59:45;;;;;;;34.50;12.00;;;;;;;-0.95;99.83;99476.55;214171;1310;23193;-69
2022/11/30 03:04:46;;;;;;;34.40;14.60;;;;;;;-0.94;99.91;99476.84;214019;1310;22478;-76
2022/11/30 03:09:49;;;;;;;33.40;12.70;;;;;;;-0.91;99.95;99476.39;214103;1310;23024;-76
2022/11/30 03:14:51;;;;;;;33.40;12.20;;;;;;;-0.93;99.79;99478.09;214152;1310;22555;-76
2022/11/30 03:19:53;;;;;;;36.90;13.80;;;;;;;-0.93;99.90;99493.83;214271;1310;22535;-76
2022/11/30 03:24:55;;;;;;;26.80;11.20;;;;;;;-0.93;99.95;99504.02;214188;1310;22536;-76
2022/11/30 03:29:56;;;;;;;36.40;14.60;;;;;;;-0.91;99.98;99505.83;214285;1310;24279;-76
2022/11/30 03:34:58;;;;;;;33.60;13.60;;;;;;;-0.85;99.99;99505.48;214208;1310;22538;-77
2022/11/30 03:40:00;;;;;;;28.50;10.50;;;;;;;-0.88;99.81;99506.41;214031;1310;22515;-76
2022/11/30 03:45:03;;;;;;;37.90;13.80;;;;;;;-0.92;99.76;99503.75;214124;1310;25356;-76
2022/11/30 03:50:06;;;;;;;36.70;12.60;;;;;;;-0.94;99.95;99503.58;214232;1310;22493;-76
2022/11/30 03:55:08;;;;;;;36.40;13.50;;;;;;;-0.95;99.96;99503.25;214274;1310;22952;-78
2022/11/30 04:00:11;;;;;;;34.40;12.60;;;;;;;-0.96;99.86;99508.11;214102;1310;23272;-76
2022/11/30 04:05:13;;;;;;;36.10;13.80;;;;;;;-0.94;99.95;99518.19;214141;1310;25347;-76
2022/11/30 04:10:15;;;;;;;41.50;15.20;;;;;;;-0.92;99.84;99519.14;214059;1310;24323;-76
2022/11/30 04:15:17;;;;;;;33.60;12.70;;;;;;;-0.95;99.95;99518.98;214216;1310;24496;-76
2022/11/30 04:20:19;;;;;;;38.90;15.40;;;;;;;-0.94;100.00;99518.92;214201;1310;22857;-79
2022/11/30 04:25:21;;;;;;;44.00;14.70;;;;;;;-0.90;100.00;99515.42;213940;1310;25603;-76
2022/11/30 04:30:23;;;;;;;35.20;14.20;;;;;;;-0.88;99.98;99519.69;214231;1310;25538;-77
2022/11/30 04:35:25;;;;;;;34.90;14.10;;;;;;;-0.92;99.94;99520.95;214235;1310;22678;-76
2022/11/30 04:40:27;;;;;;;36.40;14.60;;;;;;;-0.96;99.84;99523.41;214086;1310;25364;-77
2022/11/30 04:45:28;;;;;;;35.50;13.80;;;;;;;-1.00;99.79;99524.64;214198;1309;24124;-76
2022/11/30 04:50:36;;;;;;;31.40;11.60;;;;;;;-1.03;99.87;99522.70;214190;1310;22483;-76
2022/11/30 04:55:38;;;;;;;35.60;14.10;;;;;;;-1.07;99.89;99519.41;214082;1310;22589;-76
2022/11/30 05:00:40;;;;;;;40.00;15.20;;;;;;;-1.07;99.92;99525.48;214025;1310;22457;-76
2022/11/30 05:05:42;;;;;;;35.00;13.90;;;;;;;-1.06;99.97;99529.38;214022;1311;22523;-76
2022/11/30 05:10:43;;;;;;;33.60;13.40;;;;;;;-1.06;99.86;99535.48;214111;1310;25331;-76
2022/11/30 05:15:53;;;;;;;40.30;14.50;;;;;;;-1.10;99.91;99533.19;214252;1310;25093;-76
2022/11/30 05:20:55;;;;;;;41.60;15.10;;;;;;;-1.10;100.00;99542.90;214162;1310;24292;-75
2022/11/30 05:26:01;;;;;;;36.00;14.00;;;;;;;-1.08;99.98;99544.09;214192;1309;22500;-76
2022/11/30 05:31:04;;;;;;;38.20;13.20;;;;;;;-1.07;99.91;99550.13;214262;1310;24561;-76
2022/11/30 05:36:06;;;;;;;38.80;14.80;;;;;;;-1.07;99.85;99554.00;214103;1310;22477;-77
2022/11/30 05:41:12;;;;;;;40.80;15.50;;;;;;;-1.09;99.99;99549.34;213991;1310;25572;-75
2022/11/30 05:46:14;;;;;;;35.20;14.00;;;;;;;-1.07;99.98;99552.59;214092;1301;22511;-77
2022/11/30 05:51:17;;;;;;;38.30;14.20;;;;;;;-1.05;99.93;99549.77;214258;1310;22476;-76
2022/11/30 05:56:21;;;;;;;35.90;13.30;;;;;;;-1.04;99.95;99548.00;214320;1310;24762;-76
2022/11/30 06:01:28;;;;;;;39.50;14.20;;;;;;;-1.06;99.92;99552.59;214204;1310;22548;-76
2022/11/30 06:06:30;;;;;;;37.70;14.00;;;;;;;-1.10;99.89;99554.31;213957;1310;25416;-77
2022/11/30 06:11:32;;;;;;;41.00;14.60;;;;;;;-1.08;100.00;99553.11;214082;1310;25394;-77
2022/11/30 06:16:33;;;;;;;42.30;15.10;;;;;;;-1.06;100.00;99554.10;214063;1311;25449;-76
2022/11/30 06:21:35;;;;;;;45.60;15.40;;;;;;;-1.06;99.91;99566.89;214317;1310;22664;-76
2022/11/30 06:26:38;;;;;;;39.60;16.00;;;;;;;-1.07;99.85;99567.31;214345;1310;25460;-76
2022/11/30 06:31:40;;;;;;;36.90;13.20;;;;;;;-1.08;99.73;99567.11;214094;1310;24285;-77
2022/11/30 06:36:42;;;;;;;36.70;14.10;;;;;;;-1.11;99.90;99569.55;214097;1310;24110;-76
2022/11/30 06:41:43;;;;;;;43.70;15.20;;;;;;;-1.11;99.92;99569.84;214452;1288;22758;-74
2022/11/30 06:46:50;;;;;;;38.90;14.10;;;;;;;-1.15;99.61;99574.42;214411;1289;22620;-74
2022/11/30 06:51:52;;;;;;;38.00;14.30;;;;;;;-1.12;99.95;99577.07;214454;1281;25460;-75
2022/11/30 06:56:55;;;;;;;37.40;15.00;;;;;;;-1.05;100.00;99581.13;214613;1281;23785;-75
2022/11/30 07:01:57;;;;;;;45.50;17.20;;;;;;;-1.03;100.00;99589.48;219838;1281;138936;-75
2022/11/30 07:07:07;;;;;;;38.80;14.80;;;;;;;-0.99;99.91;99587.03;215451;1281;139654;-75
2022/11/30 07:12:08;;;;;;;40.50;15.20;;;;;;;-0.91;99.97;99584.50;214578;1288;138830;-75
2022/11/30 07:17:10;;;;;;;48.80;17.10;;;;;;;-0.84;100.00;99585.70;214535;1281;138817;-73
2022/11/30 07:22:13;;;;;;;37.00;15.10;;;;;;;-0.85;99.70;99585.66;214503;1281;139054;-74
2022/11/30 07:27:15;;;;;;;40.50;15.60;;;;;;;-0.87;99.56;99586.98;214464;1281;25464;-74
2022/11/30 07:32:17;;;;;;;45.40;15.50;;;;;;;-0.85;99.76;99581.45;214380;1280;138354;-75
2022/11/30 07:37:19;;;;;;;35.70;15.30;;;;;;;-0.84;99.58;99575.71;214315;1285;138964;-74
2022/11/30 07:42:21;;;;;;;32.10;12.00;;;;;;;-0.86;99.49;99582.25;214515;1278;139110;-74
2022/11/30 07:47:23;;;;;;;33.70;13.90;;;;;;;-0.93;99.16;99588.52;214689;1284;139331;-73
2022/11/30 07:52:25;;;;;;;31.50;13.40;;;;;;;-0.98;99.11;99587.48;214777;1281;138869;-74
2022/11/30 07:57:27;;;;;;;34.60;13.80;;;;;;;-1.00;99.24;99579.27;214505;1281;139872;-73
2022/11/30 08:02:29;;;;;;;30.30;12.40;;;;;;;-1.00;99.22;99580.31;215567;1287;22663;-75
2022/11/30 08:07:30;;;;;;;32.90;12.70;;;;;;;-0.95;99.64;99577.59;214574;1281;138548;-74
2022/11/30 08:12:33;;;;;;;28.40;12.10;;;;;;;-0.88;99.63;99578.41;214598;1310;139173;-74
2022/11/30 08:17:35;;;;;;;28.70;13.10;;;;;;;-0.87;99.15;99575.49;214577;1298;139038;-74
2022/11/30 08:22:36;;;;;;;31.70;11.90;;;;;;;-0.88;99.21;99587.71;214386;1288;138868;-74
2022/11/30 08:27:38;;;;;;;33.80;13.20;;;;;;;-0.87;99.12;99594.96;214619;1303;138991;-73
2022/11/30 08:32:40;;;;;;;32.00;13.60;;;;;;;-0.83;99.17;99598.70;214715;1280;23729;-74
2022/11/30 08:37:42;;;;;;;31.90;14.10;;;;;;;-0.82;98.96;99600.42;214453;1288;138476;-74
2022/11/30 08:42:44;;;;;;;32.20;13.00;;;;;;;-0.82;98.99;99602.52;214572;1287;138989;-75
2022/11/30 08:47:46;;;;;;;31.70;13.00;;;;;;;-0.81;98.73;99608.66;214786;1287;139838;-75
2022/11/30 08:52:48;;;;;;;37.40;15.20;;;;;;;-0.75;99.08;99612.46;214591;1287;139167;-74
2022/11/30 08:57:50;;;;;;;35.60;12.90;;;;;;;-0.63;99.20;99613.80;214562;1285;138923;-73
2022/11/30 09:02:52;;;;;;;42.70;15.40;;;;;;;-0.56;98.81;99615.41;215642;1288;24989;-74
2022/11/30 09:07:54;;;;;;;38.00;14.90;;;;;;;-0.49;99.01;99615.45;214480;1285;138722;-72
2022/11/30 09:12:56;;;;;;;35.40;16.10;;;;;;;-0.37;98.77;99617.48;214700;1280;138715;-73
2022/11/30 09:17:57;;;;;;;33.90;13.40;;;;;;;-0.26;98.86;99620.17;214639;1295;138857;-74
2022/11/30 09:22:59;;;;;;;37.10;14.90;;;;;;;-0.18;98.56;99617.92;214471;1281;138885;-74
2022/11/30 09:28:01;;;;;;;35.90;14.40;;;;;;;-0.15;98.15;99622.35;214579;1304;138924;-74
2022/11/30 09:33:06;;;;;;;35.60;13.30;;;;;;;-0.13;97.97;99618.52;214737;1288;25012;-74
2022/11/30 09:38:08;;;;;;;30.50;12.50;;;;;;;-0.06;97.98;99617.77;214553;1284;138692;-74
2022/11/30 09:43:44;;;;;;;33.40;13.70;;;;;;;-0.05;97.80;99617.89;214383;1295;139400;-74
2022/11/30 09:48:58;;;;;;;36.00;14.90;;;;;;;0.07;97.74;99621.86;214401;1288;138975;-75
2022/11/30 09:54:07;;;;;;;37.00;14.90;;;;;;;0.10;97.29;99612.88;214745;1310;139429;-74
2022/11/30 09:59:28;;;;;;;34.70;14.00;;;;;;;0.08;97.07;99617.88;214768;1284;139518;-74
2022/11/30 10:04:30;;;;;;;36.70;15.10;;;;;;;0.09;96.91;99618.49;215110;1287;138796;-74
2022/11/30 10:10:20;;;;;;;33.50;13.60;;;;;;;0.07;96.71;99625.91;214701;1295;139678;-74
2022/11/30 10:15:53;;;;;;;30.10;13.70;;;;;;;0.07;96.75;99618.42;214480;1286;138799;-75
2022/11/30 10:21:23;;;;;;;31.60;14.00;;;;;;;0.11;97.07;99613.20;214839;1308;24777;-74
2022/11/30 10:26:33;;;;;;;;;;;;;;;0.18;97.00;99614.14;214556;1285;22566;-75
2022/11/30 10:31:37;;;;;;;30.90;12.60;;;;;;;0.21;96.87;99612.04;214586;1281;124472;-76
2022/11/30 10:36:43;;;;;;;40.90;17.40;;;;;;;0.20;96.49;99610.93;214606;1285;139061;-75
2022/11/30 10:41:52;;;;;;;35.60;15.10;;;;;;;0.23;96.46;99601.78;214392;1281;139726;-73
2022/11/30 10:47:01;;;;;;;37.00;14.90;;;;;;;0.26;96.41;99598.02;214790;1287;138803;-76
2022/11/30 10:52:07;;;;;;;34.40;14.40;;;;;;;0.31;96.33;99597.73;214438;1290;139187;-74
2022/11/30 10:57:09;;;;;;;30.30;12.70;;;;;;;0.36;96.10;99604.92;214542;1283;23770;-75
2022/11/30 11:02:35;;;;;;;33.00;14.20;;;;;;;0.38;96.03;99603.96;215292;1288;138371;-75
2022/11/30 11:07:57;;;;;;;29.10;12.70;;;;;;;0.51;96.17;99603.65;214619;1281;139082;-74
2022/11/30 11:13:16;;;;;;;25.10;12.10;;;;;;;0.65;95.85;99609.98;214639;1288;138922;-75
2022/11/30 11:18:24;;;;;;;25.70;11.80;;;;;;;0.71;95.66;99605.68;214730;1294;138750;-74
2022/11/30 11:23:38;;;;;;;27.80;13.00;;;;;;;0.73;95.57;99607.10;214811;1288;138686;-75
2022/11/30 11:28:44;;;;;;;30.60;13.20;;;;;;;0.76;95.19;99604.47;214626;1302;138815;-75
2022/11/30 11:33:52;;;;;;;27.00;11.60;;;;;;;0.77;94.98;99606.45;214508;1284;139079;-76
2022/11/30 11:38:55;;;;;;;26.40;11.50;;;;;;;0.80;94.92;99602.35;214952;1288;24326;-75
2022/11/30 11:44:09;;;;;;;28.90;13.20;;;;;;;0.85;94.98;99604.13;214598;1278;138383;-75
2022/11/30 11:49:21;;;;;;;29.00;13.60;;;;;;;0.94;94.94;99603.52;214635;1281;138952;-76
2022/11/30 11:54:34;;;;;;;27.00;12.60;;;;;;;1.02;94.65;99596.28;214410;1285;138709;-75
2022/11/30 11:59:50;;;;;;;29.80;14.20;;;;;;;1.06;94.52;99591.68;214780;1295;139214;-76
2022/11/30 12:05:06;;;;;;;30.00;14.40;;;;;;;1.13;94.39;99594.64;215048;1294;139285;-74
2022/11/30 12:10:20;;;;;;;25.10;12.90;;;;;;;1.20;94.14;99597.10;214502;1284;139107;-75
2022/11/30 12:16:10;;;;;;;30.50;14.00;;;;;;;1.27;94.07;99602.64;214610;1303;139123;-76
2022/11/30 12:21:15;;;;;;;30.30;15.00;;;;;;;1.33;93.81;99609.27;214371;1288;25222;-76
2022/11/30 12:26:42;;;;;;;31.90;15.80;;;;;;;1.42;93.98;99612.11;214664;1287;138234;-76
2022/11/30 12:32:10;;;;;;;35.00;16.80;;;;;;;1.43;93.68;99611.54;214491;1288;138647;-76
2022/11/30 12:37:36;;;;;;;31.20;14.50;;;;;;;1.47;93.65;99609.42;214466;1288;138537;-76
2022/11/30 12:43:02;;;;;;;29.60;13.30;;;;;;;1.47;93.38;99603.48;214551;1285;138711;-73
2022/11/30 12:48:48;;;;;;;31.60;14.60;;;;;;;1.39;92.98;99598.88;214649;1287;138694;-74
2022/11/30 12:54:12;;;;;;;32.80;14.40;;;;;;;1.33;93.10;99597.81;214609;1281;138723;-76
2022/11/30 12:59:26;;;;;;;31.80;14.60;;;;;;;1.29;93.19;99601.48;215223;1284;138704;-74
2022/11/30 13:04:36;;;;;;;27.50;14.30;;;;;;;1.28;93.19;99601.64;214986;1288;138876;-72
2022/11/30 13:09:45;;;;;;;31.90;15.90;;;;;;;1.19;93.00;99594.70;214710;1281;139051;-74
2022/11/30 13:14:58;;;;;;;33.20;14.20;;;;;;;1.18;93.16;99597.15;214702;1287;25308;-74
2022/11/30 13:20:15;;;;;;;27.50;13.50;;;;;;;1.14;93.17;99600.48;214560;1284;138331;-74
2022/11/30 13:25:26;;;;;;;30.50;15.10;;;;;;;1.13;93.26;99595.20;214636;1285;138525;-75
2022/11/30 13:30:57;;;;;;;30.00;14.10;;;;;;;1.09;93.03;99592.33;214460;1281;138646;-75
2022/11/30 13:36:02;;;;;;;27.20;12.90;;;;;;;1.04;93.03;99592.83;214675;1281;138726;-74
2022/11/30 13:41:07;;;;;;;29.40;13.90;;;;;;;0.96;92.76;99598.55;214518;1285;138819;-74
2022/11/30 13:46:14;;;;;;;23.60;12.20;;;;;;;0.88;92.83;99594.95;214768;1281;138681;-73
2022/11/30 13:51:37;;;;;;;20.20;10.90;;;;;;;0.83;92.87;99600.49;214693;1288;22471;-72
2022/11/30 13:56:39;;;;;;;27.10;12.80;;;;;;;0.79;92.93;99602.63;214911;1310;22615;-73
2022/11/30 14:02:35;;;;;;;23.80;12.20;;;;;;;0.76;92.80;99601.87;215248;1284;138881;-74
2022/11/30 14:07:37;;;;;;;27.90;14.50;;;;;;;0.72;92.93;99603.12;214449;1288;139112;-75
2022/11/30 14:12:55;;;;;;;26.20;13.70;;;;;;;0.69;92.91;99607.38;214474;1288;139423;-78
2022/11/30 14:17:57;;;;;;;29.70;14.00;;;;;;;0.66;93.12;99607.67;214788;1293;138689;-78
2022/11/30 14:23:06;;;;;;;28.20;13.90;;;;;;;0.62;92.87;99608.23;214640;1281;138710;-77
2022/11/30 14:28:15;;;;;;;27.10;12.80;;;;;;;0.56;92.85;99611.11;214783;1295;138683;-76
2022/11/30 14:33:47;;;;;;;25.00;12.90;;;;;;;0.50;92.93;99608.77;214900;1286;25554;-75
2022/11/30 14:38:49;;;;;;;26.60;12.70;;;;;;;0.49;93.10;99610.83;214800;1284;23217;-75
2022/11/30 14:44:09;;;;;;;24.00;12.60;;;;;;;0.45;92.95;99608.30;214533;1281;139519;-75
2022/11/30 14:49:16;;;;;;;;;;;;;;;0.37;92.76;99605.18;214564;1287;138710;-73
2022/11/30 14:54:45;;;;;;;28.40;12.60;;;;;;;0.32;93.06;99601.96;214780;1281;124988;-74
2022/11/30 14:59:52;;;;;;;22.40;10.90;;;;;;;0.28;92.92;99605.27;214262;1312;139255;-75
2022/11/30 15:04:55;;;;;;;25.50;13.00;;;;;;;0.23;92.96;99609.65;214333;1288;22492;-76
2022/11/30 15:10:05;;;;;;;22.70;12.30;;;;;;;0.17;93.08;99614.95;214397;1312;22484;-78
2022/11/30 15:15:23;;;;;;;23.40;13.10;;;;;;;0.08;92.85;99617.77;214068;1312;22482;-75
2022/11/30 15:21:05;;;;;;;23.10;11.70;;;;;;;-0.01;92.94;99618.88;214203;1310;22487;-74
2022/11/30 15:26:20;;;;;;;25.20;13.50;;;;;;;-0.06;92.87;99619.91;214032;1312;24985;-74
2022/11/30 15:31:23;;;;;;;24.60;12.10;;;;;;;-0.14;93.08;99621.07;214088;1313;24084;-74
2022/11/30 15:36:26;;;;;;;26.60;14.70;;;;;;;-0.20;92.92;99625.86;214327;1310;22963;-75
2022/11/30 15:41:35;;;;;;;25.00;11.60;;;;;;;-0.26;93.41;99632.89;213963;1313;24087;-75
2022/11/30 15:46:38;;;;;;;27.20;13.40;;;;;;;-0.28;93.49;99637.38;213939;1310;25334;-76
2022/11/30 15:52:17;;;;;;;27.30;14.40;;;;;;;-0.26;93.67;99644.19;213964;1312;22546;-74
2022/11/30 15:57:21;;;;;;;24.70;12.80;;;;;;;-0.26;93.56;99658.61;214099;1298;22555;-75
2022/11/30 16:02:27;;;;;;;26.80;14.10;;;;;;;-0.29;93.59;99662.77;214096;1312;22481;-75
2022/11/30 16:07:33;;;;;;;23.80;13.00;;;;;;;-0.30;93.72;99661.55;214023;1310;22470;-75
2022/11/30 16:12:35;;;;;;;25.40;13.70;;;;;;;-0.30;93.59;99661.96;214012;1312;22488;-75
2022/11/30 16:17:36;;;;;;;30.80;13.80;;;;;;;-0.33;93.58;99666.20;214045;1311;22589;-74
2022/11/30 16:22:43;;;;;;;28.10;13.40;;;;;;;-0.36;93.67;99668.93;213915;1312;24275;-75
2022/11/30 16:27:46;;;;;;;26.50;11.90;;;;;;;-0.39;93.75;99674.55;214208;1312;22481;-75
2022/11/30 16:32:49;;;;;;;26.80;11.90;;;;;;;-0.38;93.99;99678.45;214085;1312;25403;-74
2022/11/30 16:37:51;;;;;;;25.80;12.30;;;;;;;-0.37;93.78;99680.73;214039;1312;22487;-75
2022/11/30 16:42:53;;;;;;;27.00;14.10;;;;;;;-0.37;93.89;99680.88;214181;1311;26370;-75
2022/11/30 16:47:55;;;;;;;33.70;16.20;;;;;;;-0.39;94.04;99678.44;214216;1310;24087;-74
2022/11/30 16:52:57;;;;;;;32.10;15.20;;;;;;;-0.40;93.96;99679.13;214061;1301;22488;-75
2022/11/30 16:58:00;;;;;;;31.70;14.40;;;;;;;-0.40;93.98;99679.33;213975;1312;27306;-74
2022/11/30 17:03:08;;;;;;;27.90;13.70;;;;;;;-0.45;93.96;99683.46;214016;1307;22975;-75
2022/11/30 17:08:10;;;;;;;27.90;13.30;;;;;;;-0.45;94.04;99685.20;214131;1313;22426;-75
2022/11/30 17:13:13;;;;;;;26.60;12.00;;;;;;;-0.43;94.37;99687.23;214209;1311;22483;-74
2022/11/30 17:18:15;;;;;;;26.40;12.40;;;;;;;-0.42;94.19;99687.23;214121;1312;22485;-74
2022/11/30 17:23:17;;;;;;;26.50;12.70;;;;;;;-0.42;94.19;99686.08;213997;1311;22613;-74
2022/11/30 17:28:19;;;;;;;23.90;12.30;;;;;;;-0.47;93.84;99686.41;213967;1312;26191;-75
2022/11/30 17:33:21;;;;;;;27.10;12.20;;;;;;;-0.48;94.26;99690.58;214084;1311;22583;-75
2022/11/30 17:38:26;;;;;;;26.40;13.50;;;;;;;-0.50;94.00;99693.55;214129;1310;24256;-75
2022/11/30 17:43:28;;;;;;;31.60;14.60;;;;;;;-0.49;94.31;99688.86;214148;1311;25999;-77
2022/11/30 17:48:31;;;;;;;26.10;12.90;;;;;;;-0.46;94.41;99688.11;213932;1309;22609;-75
2022/11/30 17:53:33;;;;;;;28.60;13.80;;;;;;;-0.47;94.21;99687.14;214190;1312;24285;-74
2022/11/30 17:58:37;;;;;;;28.10;13.70;;;;;;;-0.49;94.16;99690.13;214093;1310;24423;-76
2022/11/30 18:03:45;;;;;;;28.50;14.30;;;;;;;-0.48;94.36;99695.23;214041;1309;25212;-73
2022/11/30 18:08:47;;;;;;;31.10;14.80;;;;;;;-0.45;94.40;99698.65;214104;1311;22951;-76
2022/11/30 18:13:52;;;;;;;29.90;13.90;;;;;;;-0.42;94.51;99697.16;213991;1311;22644;-74
2022/11/30 18:18:57;;;;;;;31.60;14.00;;;;;;;-0.40;94.70;99701.64;214193;1310;22482;-75
2022/11/30 18:23:59;;;;;;;30.80;14.00;;;;;;;-0.38;94.52;99699.54;214415;1310;23963;-75
2022/11/30 18:29:01;;;;;;;31.80;14.90;;;;;;;-0.36;94.42;99701.66;214097;1310;23347;-76
2022/11/30 18:34:05;;;;;;;27.20;13.80;;;;;;;-0.37;94.20;99701.48;214053;1310;22505;-75
2022/11/30 18:39:07;;;;;;;31.10;14.10;;;;;;;-0.36;94.45;99700.45;214135;1310;23894;-75
2022/11/30 18:44:09;;;;;;;34.10;14.30;;;;;;;-0.37;94.47;99701.86;214096;1310;23247;-75
2022/11/30 18:49:11;;;;;;;30.90;14.20;;;;;;;-0.35;94.39;99704.46;213894;1310;22504;-73
2022/11/30 18:54:13;;;;;;;25.60;12.20;;;;;;;-0.36;94.26;99703.04;214050;1310;24297;-75
2022/11/30 18:59:15;;;;;;;32.50;13.90;;;;;;;-0.37;94.28;99704.02;214037;1310;24315;-75
2022/11/30 19:04:17;;;;;;;30.80;14.10;;;;;;;-0.36;94.31;99708.59;213998;1310;22501;-75
2022/11/30 19:09:21;;;;;;;34.20;14.70;;;;;;;-0.35;94.31;99711.30;214302;1310;22523;-76
2022/11/30 19:14:23;;;;;;;29.50;13.50;;;;;;;-0.35;94.21;99710.21;214212;1301;22599;-74
2022/11/30 19:19:24;;;;;;;30.10;13.90;;;;;;;-0.34;94.25;99711.75;214212;1310;22484;-75
2022/11/30 19:24:27;;;;;;;29.20;12.50;;;;;;;-0.33;94.44;99709.66;214056;1310;22520;-74
2022/11/30 19:29:29;;;;;;;29.70;13.60;;;;;;;-0.33;94.23;99709.70;214158;1310;22468;-74
2022/11/30 19:34:31;;;;;;;30.60;14.20;;;;;;;-0.33;94.40;99714.81;214169;1310;22681;-75
2022/11/30 19:39:33;;;;;;;34.00;15.60;;;;;;;-0.32;94.41;99720.33;214077;1310;25508;-75
2022/11/30 19:44:35;;;;;;;32.30;16.00;;;;;;;-0.29;94.46;99721.30;214171;1310;22478;-74
2022/11/30 19:49:37;;;;;;;34.70;15.80;;;;;;;-0.28;94.45;99720.64;214165;1310;25320;-74
2022/11/30 19:54:39;;;;;;;30.30;14.60;;;;;;;-0.26;94.42;99717.59;214139;1310;22486;-74
2022/11/30 19:59:40;;;;;;;29.70;14.10;;;;;;;-0.24;94.33;99719.19;214241;1308;23544;-75
2022/11/30 20:04:42;;;;;;;29.80;14.30;;;;;;;-0.24;94.13;99723.61;214040;1310;22576;-74
2022/11/30 20:09:44;;;;;;;34.10;12.90;;;;;;;-0.24;94.30;99720.85;214219;1310;25386;-74
2022/11/30 20:14:48;;;;;;;24.40;11.90;;;;;;;-0.23;94.21;99719.55;213931;1310;22484;-74
2022/11/30 20:19:51;;;;;;;26.40;11.90;;;;;;;-0.24;94.09;99721.35;214094;1310;22474;-74
2022/11/30 20:24:52;;;;;;;26.80;13.60;;;;;;;-0.25;94.13;99721.13;214018;1310;24115;-76
2022/11/30 20:29:55;;;;;;;24.60;12.60;;;;;;;-0.26;94.24;99721.13;213992;1310;25886;-75
2022/11/30 20:34:56;;;;;;;30.40;13.20;;;;;;;-0.26;94.27;99720.48;214108;1310;22484;-75
2022/11/30 20:39:58;;;;;;;23.60;10.70;;;;;;;-0.27;94.20;99720.70;214060;1310;23744;-74
2022/11/30 20:45:00;;;;;;;25.40;11.00;;;;;;;-0.28;94.09;99719.85;214029;1310;22477;-75
2022/11/30 20:50:05;;;;;;;24.50;11.40;;;;;;;-0.29;93.99;99722.00;214070;1310;22534;-75
2022/11/30 20:55:07;;;;;;;21.70;10.00;;;;;;;-0.28;94.21;99721.88;214084;1310;25431;-75
2022/11/30 21:00:10;;;;;;;23.20;10.70;;;;;;;-0.23;94.33;99718.77;213949;1297;22480;-76
2022/11/30 21:05:14;;;;;;;25.90;13.10;;;;;;;-0.19;94.28;99722.50;214136;1310;25503;-74
2022/11/30 21:10:16;;;;;;;25.40;11.50;;;;;;;-0.22;94.10;99717.34;214212;1310;22485;-75
2022/11/30 21:15:18;;;;;;;23.70;10.60;;;;;;;-0.22;94.06;99715.15;214087;1310;25325;-75
2022/11/30 21:20:20;;;;;;;25.10;12.40;;;;;;;-0.24;94.16;99718.35;214185;1310;22471;-74
2022/11/30 21:25:21;;;;;;;25.90;11.70;;;;;;;-0.22;94.17;99711.75;214220;1311;25468;-74
2022/11/30 21:30:23;;;;;;;25.20;11.50;;;;;;;-0.21;94.06;99706.07;213997;1310;22467;-75
2022/11/30 21:35:25;;;;;;;22.40;10.90;;;;;;;-0.15;94.47;99706.71;214034;1310;22470;-74
2022/11/30 21:40:27;;;;;;;23.70;10.80;;;;;;;-0.13;94.37;99705.73;214079;1310;23747;-74
2022/11/30 21:45:29;;;;;;;21.80;10.10;;;;;;;-0.14;94.17;99706.23;214155;1309;22465;-75
2022/11/30 21:50:31;;;;;;;23.40;10.70;;;;;;;-0.16;94.01;99707.20;214000;1310;24116;-75
2022/11/30 21:55:35;;;;;;;22.60;9.90;;;;;;;-0.11;94.48;99702.36;214164;1310;22473;-74
2022/11/30 22:00:37;;;;;;;17.30;8.60;;;;;;;-0.09;94.27;99702.45;214012;1310;25555;-75
2022/11/30 22:05:39;;;;;;;19.80;10.00;;;;;;;-0.05;94.39;99698.17;214069;1310;22507;-74
2022/11/30 22:10:40;;;;;;;20.20;10.00;;;;;;;-0.01;94.35;99699.94;213937;1305;22529;-73
2022/11/30 22:15:42;;;;;;;23.70;12.10;;;;;;;-0.00;94.28;99700.95;214256;1310;25577;-75
2022/11/30 22:20:44;;;;;;;25.10;12.00;;;;;;;0.00;94.30;99703.59;214178;1310;24256;-75
2022/11/30 22:25:46;;;;;;;25.20;12.40;;;;;;;0.01;94.45;99711.21;213999;1310;22589;-75
2022/11/30 22:30:48;;;;;;;29.80;12.50;;;;;;;0.04;94.56;99710.85;214217;1310;23810;-73
2022/11/30 22:35:50;;;;;;;25.30;11.70;;;;;;;0.06;94.30;99715.33;214321;1310;27847;-74
2022/11/30 22:40:51;;;;;;;27.40;12.00;;;;;;;0.13;94.49;99709.67;214287;1310;89886;-77
2022/11/30 22:45:53;;;;;;;32.80;13.30;;;;;;;0.17;94.48;99715.81;214087;1310;23276;-74
2022/11/30 22:50:55;;;;;;;24.00;11.50;;;;;;;0.20;94.43;99717.00;214175;1310;25271;-75
2022/11/30 22:56:01;;;;;;;25.60;11.70;;;;;;;0.20;94.05;99718.09;214101;1310;23220;-75
2022/11/30 23:01:11;;;;;;;25.70;12.80;;;;;;;0.21;94.02;99713.40;214061;1310;22468;-74
2022/11/30 23:06:14;;;;;;;23.70;10.90;;;;;;;0.22;94.05;99714.98;214164;1310;22480;-74
2022/11/30 23:11:19;;;;;;;23.10;11.20;;;;;;;0.25;94.13;99710.25;214266;1310;22475;-75